Time;durP1;ratioP1;P1;durP2;ratioP2;P2;SDS_P1;SDS_P2;PMS_P1;PMS_P2;Temp;Humidity;BMP_temperature;BMP_pressure;BME280_temperature;BME280_humidity;BME280_pressure;Samples;Min_cycle;Max_cycle;Signal;HPM_P1;HPM_P2
2021/07/10 00:00:27;;;;;;;;;;;13.00;99.90;;;;;;5112969;28;19978;-67
2021/07/10 00:02:54;;;;;;;;;;;13.10;99.90;;;;;;5112969;28;20401;-68
2021/07/10 00:05:21;;;;;;;;;;;13.10;99.90;;;;;;5094974;28;19916;-68
2021/07/10 00:07:50;;;;;;;;;;;13.20;99.90;;;;;;5111119;28;19908;-67
2021/07/10 00:10:18;;;;;;;;;;;13.20;99.90;;;;;;5112931;28;19924;-68
2021/07/10 00:12:45;;;;;;;;;;;13.20;99.90;;;;;;5112810;28;20278;-70
2021/07/10 00:15:17;;;;;;;;;;;13.30;99.90;;;;;;5112579;28;20350;-70
2021/07/10 00:17:44;;;;;;;;;;;13.30;99.90;;;;;;5112553;28;19907;-69
2021/07/10 00:20:12;;;;;;;;;;;13.30;99.90;;;;;;5112879;28;19919;-69
2021/07/10 00:22:40;;;;;;;;;;;13.30;99.90;;;;;;5110828;28;19915;-69
2021/07/10 00:25:10;;;;;;;;;;;13.30;99.90;;;;;;5112607;28;19916;-70
2021/07/10 00:27:37;;;;;;;;;;;13.30;99.90;;;;;;5112578;28;20369;-68
2021/07/10 00:30:05;;;;;;;;;;;13.30;99.90;;;;;;5109898;28;19927;-69
2021/07/10 00:32:31;;;;;;;;;;;13.30;99.90;;;;;;5116859;28;19912;-69
2021/07/10 00:34:58;;;;;;;;;;;13.40;99.90;;;;;;5117194;28;19908;-69
2021/07/10 00:37:25;;;;;;;;;;;13.30;99.90;;;;;;5116599;28;19995;-67
2021/07/10 00:39:52;;;;;;;;;;;13.40;99.90;;;;;;5116663;28;19912;-69
2021/07/10 00:42:21;;;;;;;;;;;13.40;99.90;;;;;;5116563;28;19998;-68
2021/07/10 00:44:51;;;;;;;;;;;13.40;99.90;;;;;;5114468;28;19920;-68
2021/07/10 00:47:18;;;;;;;;;;;13.40;99.90;;;;;;5116778;28;19951;-70
2021/07/10 00:49:44;;;;;;;;;;;13.40;99.90;;;;;;5116318;28;20364;-71
2021/07/10 00:52:11;;;;;;;;;;;13.50;99.90;;;;;;5116287;28;19915;-70
2021/07/10 00:54:38;;;;;;;;;;;13.40;99.90;;;;;;5116735;28;20013;-69
2021/07/10 00:57:05;;;;;;;;;;;13.50;99.90;;;;;;5116830;28;19911;-69
2021/07/10 00:59:33;;;;;;;;;;;13.60;99.90;;;;;;5116084;28;19920;-70
2021/07/10 01:01:59;;;;;;;;;;;13.50;99.90;;;;;;5113915;28;19912;-68
2021/07/10 01:04:26;;;;;;;;;;;13.60;99.90;;;;;;5116518;28;19908;-68
2021/07/10 01:06:53;;;;;;;;;;;13.60;99.90;;;;;;5116002;28;19924;-68
2021/07/10 01:09:19;;;;;;;;;;;13.60;99.90;;;;;;5116309;28;19908;-69
2021/07/10 01:11:50;;;;;;;;;;;13.60;99.90;;;;;;5114074;28;19912;-67
2021/07/10 01:14:17;;;;;;;;;;;13.70;99.90;;;;;;5116091;28;19973;-70
2021/07/10 01:16:44;;;;;;;;;;;13.60;99.90;;;;;;5116275;28;20010;-69
2021/07/10 01:19:10;;;;;;;;;;;13.70;99.90;;;;;;5116108;28;19907;-70
2021/07/10 01:21:39;;;;;;;;;;;13.60;99.90;;;;;;5115816;28;19911;-69
2021/07/10 01:24:05;;;;;;;;;;;13.60;99.90;;;;;;5116214;28;20020;-69
2021/07/10 01:26:32;;;;;;;;;;;13.60;99.90;;;;;;5114485;28;19920;-68
2021/07/10 01:28:59;;;;;;;;;;;13.60;99.90;;;;;;5115902;28;19916;-69
2021/07/10 01:31:26;;;;;;;;;;;13.70;99.90;;;;;;5113815;28;19911;-69
2021/07/10 01:33:52;;;;;;;;;;;13.60;99.90;;;;;;5114632;28;19908;-70
2021/07/10 01:36:20;;;;;;;;;;;13.60;99.90;;;;;;5115564;28;19965;-69
2021/07/10 01:38:47;;;;;;;;;;;13.60;99.90;;;;;;5115479;28;19914;-68
2021/07/10 01:41:13;;;;;;;;;;;13.50;99.90;;;;;;5112740;28;19919;-68
2021/07/10 01:43:43;;;;;;;;;;;13.50;99.90;;;;;;5114802;28;19920;-69
2021/07/10 01:46:12;;;;;;;;;;;13.50;99.90;;;;;;5115295;28;19923;-69
2021/07/10 01:48:39;;;;;;;;;;;13.40;99.90;;;;;;5115554;28;19908;-69
2021/07/10 01:51:05;;;;;;;;;;;13.40;99.90;;;;;;5093165;28;19912;-68
2021/07/10 01:53:32;;;;;;;;;;;13.40;99.90;;;;;;5074646;28;20316;-69
2021/07/10 01:56:04;;;;;;;;;;;13.40;99.90;;;;;;5074614;28;20058;-69
2021/07/10 01:58:35;;;;;;;;;;;13.40;99.90;;;;;;5074691;28;19915;-69
2021/07/10 02:01:02;;;;;;;;;;;13.40;99.90;;;;;;5074718;28;20355;-68
2021/07/10 02:03:28;;;;;;;;;;;13.40;99.90;;;;;;5074782;28;19916;-68
2021/07/10 02:05:55;;;;;;;;;;;13.50;99.90;;;;;;5093115;28;19919;-68
2021/07/10 02:08:22;;;;;;;;;;;13.50;99.90;;;;;;5114800;28;19994;-67
2021/07/10 02:10:49;;;;;;;;;;;13.50;99.90;;;;;;5115025;28;20389;-70
2021/07/10 02:13:15;;;;;;;;;;;13.50;99.90;;;;;;5096891;28;19935;-68
2021/07/10 02:15:42;;;;;;;;;;;13.50;99.90;;;;;;5114892;28;19907;-70
2021/07/10 02:18:09;;;;;;;;;;;13.50;99.90;;;;;;5116119;28;19947;-69
2021/07/10 02:20:36;;;;;;;;;;;13.50;99.90;;;;;;5113250;28;19912;-69
2021/07/10 02:23:03;;;;;;;;;;;13.60;99.90;;;;;;5115062;28;19912;-69
2021/07/10 02:25:30;;;;;;;;;;;13.60;99.90;;;;;;5115762;28;19939;-68
2021/07/10 02:27:57;;;;;;;;;;;13.60;99.90;;;;;;5115264;28;19912;-69
2021/07/10 02:30:26;;;;;;;;;;;13.60;99.90;;;;;;5116113;28;20282;-69
2021/07/10 02:32:54;;;;;;;;;;;13.60;99.90;;;;;;5116553;28;19912;-68
2021/07/10 02:35:21;;;;;;;;;;;13.70;99.90;;;;;;5114735;28;19965;-67
2021/07/10 02:37:48;;;;;;;;;;;13.70;99.90;;;;;;5114185;28;19957;-69
2021/07/10 02:40:17;;;;;;;;;;;13.70;99.90;;;;;;5114349;28;20375;-68
2021/07/10 02:42:45;;;;;;;;;;;13.70;99.90;;;;;;5112135;28;19950;-69
2021/07/10 02:45:16;;;;;;;;;;;13.70;99.90;;;;;;5114337;28;20304;-69
2021/07/10 02:47:46;;;;;;;;;;;13.70;99.90;;;;;;5096614;28;19916;-71
2021/07/10 02:50:17;;;;;;;;;;;13.70;99.90;;;;;;5095043;28;19915;-69
2021/07/10 02:52:44;;;;;;;;;;;13.70;99.90;;;;;;5095212;28;19908;-69
2021/07/10 02:55:13;;;;;;;;;;;13.70;99.90;;;;;;5113979;28;19911;-68
2021/07/10 02:57:40;;;;;;;;;;;13.70;99.90;;;;;;5114025;28;20291;-68
2021/07/10 03:00:14;;;;;;;;;;;13.60;99.90;;;;;;5108212;28;20376;-68
2021/07/10 03:02:41;;;;;;;;;;;13.70;99.90;;;;;;5114010;28;19907;-68
2021/07/10 03:05:08;;;;;;;;;;;13.60;99.90;;;;;;5113925;28;19915;-70
2021/07/10 03:10:47;;;;;;;;;;;13.60;99.90;;;;;;5113880;28;19931;-70
2021/07/10 03:13:15;;;;;;;;;;;13.60;99.90;;;;;;5112339;28;20366;-69
2021/07/10 03:15:42;;;;;;;;;;;13.60;99.90;;;;;;5113412;28;19915;-68
2021/07/10 03:18:09;;;;;;;;;;;13.50;99.90;;;;;;5113577;28;19976;-70
2021/07/10 03:20:35;;;;;;;;;;;13.40;99.90;;;;;;5113842;28;19930;-69
2021/07/10 03:23:02;;;;;;;;;;;13.10;99.90;;;;;;5113485;28;19908;-70
2021/07/10 03:25:29;;;;;;;;;;;12.80;99.90;;;;;;5113612;28;19949;-69
2021/07/10 03:27:57;;;;;;;;;;;12.50;99.90;;;;;;5112040;28;20002;-68
2021/07/10 03:30:28;;;;;;;;;;;12.30;99.90;;;;;;5113483;28;19912;-70
2021/07/10 03:32:55;;;;;;;;;;;12.20;99.90;;;;;;5113373;28;19984;-70
2021/07/10 03:35:22;;;;;;;;;;;12.10;99.90;;;;;;5113452;28;19955;-70
2021/07/10 03:37:50;;;;;;;;;;;12.00;99.90;;;;;;5113052;28;19911;-69
2021/07/10 03:40:22;;;;;;;;;;;12.00;99.90;;;;;;5113674;28;19907;-69
2021/07/10 03:42:49;;;;;;;;;;;12.00;99.90;;;;;;5090615;28;19928;-70
2021/07/10 03:45:16;;;;;;;;;;;11.90;99.90;;;;;;5113238;28;19912;-68
2021/07/10 03:47:44;;;;;;;;;;;11.90;99.90;;;;;;5113146;28;20266;-68
2021/07/10 03:50:13;;;;;;;;;;;11.80;99.90;;;;;;5113450;28;19911;-69
2021/07/10 03:52:40;;;;;;;;;;;11.70;99.90;;;;;;5113509;28;20266;-68
2021/07/10 03:55:08;;;;;;;;;;;11.70;99.90;;;;;;5113623;28;19970;-69
2021/07/10 03:57:35;;;;;;;;;;;11.70;99.90;;;;;;5111269;28;20346;-69
2021/07/10 04:00:05;;;;;;;;;;;11.80;99.90;;;;;;5095160;28;20255;-69
2021/07/10 04:02:32;;;;;;;;;;;11.90;99.90;;;;;;5113301;28;19908;-68
2021/07/10 04:04:58;;;;;;;;;;;11.80;99.90;;;;;;5113314;28;20352;-69
2021/07/10 04:07:25;;;;;;;;;;;11.90;99.90;;;;;;5113806;28;20346;-67
2021/07/10 04:09:52;;;;;;;;;;;11.90;99.90;;;;;;5111797;28;19943;-69
2021/07/10 04:12:19;;;;;;;;;;;12.00;99.90;;;;;;5109716;28;19912;-69
2021/07/10 04:14:45;;;;;;;;;;;12.00;99.90;;;;;;5113060;28;20038;-69
2021/07/10 04:17:12;;;;;;;;;;;12.00;99.90;;;;;;5113673;28;19908;-68
2021/07/10 04:19:39;;;;;;;;;;;12.10;99.90;;;;;;5088509;28;19947;-69
2021/07/10 04:22:05;;;;;;;;;;;12.00;99.90;;;;;;5070908;28;19924;-69
2021/07/10 04:24:32;;;;;;;;;;;12.10;99.90;;;;;;5070386;28;19966;-68
2021/07/10 04:26:59;;;;;;;;;;;12.20;99.90;;;;;;5076326;28;20358;-69
2021/07/10 04:29:25;;;;;;;;;;;12.10;99.90;;;;;;5110838;28;19932;-69
2021/07/10 04:31:52;;;;;;;;;;;12.20;99.90;;;;;;5110596;28;19908;-67
2021/07/10 04:34:19;;;;;;;;;;;12.20;99.90;;;;;;5110252;28;19908;-69
2021/07/10 04:36:45;;;;;;;;;;;12.10;99.90;;;;;;5092137;28;19915;-69
2021/07/10 04:39:12;;;;;;;;;;;12.20;99.90;;;;;;5110718;28;19918;-68
2021/07/10 04:41:38;;;;;;;;;;;12.10;99.90;;;;;;5108409;28;19920;-70
2021/07/10 04:44:05;;;;;;;;;;;12.10;99.90;;;;;;5110616;28;19924;-68
2021/07/10 04:46:32;;;;;;;;;;;12.10;99.90;;;;;;5110063;28;19916;-68
2021/07/10 04:48:59;;;;;;;;;;;12.20;99.90;;;;;;5110448;28;20006;-69
2021/07/10 04:51:25;;;;;;;;;;;12.20;99.90;;;;;;5110476;28;20412;-69
2021/07/10 04:53:55;;;;;;;;;;;12.20;99.90;;;;;;5109963;28;20354;-68
2021/07/10 04:56:23;;;;;;;;;;;12.10;99.90;;;;;;5107354;28;19911;-68
2021/07/10 04:58:49;;;;;;;;;;;12.10;99.90;;;;;;5110302;28;19930;-69
2021/07/10 05:01:16;;;;;;;;;;;12.10;99.90;;;;;;5110980;28;20381;-69
2021/07/10 05:03:43;;;;;;;;;;;12.20;99.90;;;;;;5110660;28;20362;-68
2021/07/10 05:06:10;;;;;;;;;;;12.20;99.90;;;;;;5108958;28;19924;-69
2021/07/10 05:08:37;;;;;;;;;;;12.20;99.90;;;;;;5110359;28;19919;-68
2021/07/10 05:11:04;;;;;;;;;;;12.30;99.90;;;;;;5109713;28;19940;-69
2021/07/10 05:13:30;;;;;;;;;;;12.40;99.90;;;;;;5109871;28;19919;-68
2021/07/10 05:15:57;;;;;;;;;;;12.40;99.90;;;;;;5112176;28;20397;-70
2021/07/10 05:18:24;;;;;;;;;;;12.50;99.90;;;;;;5114082;28;19960;-70
2021/07/10 05:20:50;;;;;;;;;;;12.50;99.90;;;;;;5111641;28;20445;-68
2021/07/10 05:23:17;;;;;;;;;;;12.50;99.90;;;;;;5114298;28;19937;-69
2021/07/10 05:25:44;;;;;;;;;;;12.40;99.90;;;;;;5113291;28;19912;-68
2021/07/10 05:28:11;;;;;;;;;;;12.10;99.90;;;;;;5113995;28;19915;-69
2021/07/10 05:30:38;;;;;;;;;;;11.80;99.90;;;;;;5114040;28;19908;-68
2021/07/10 05:33:04;;;;;;;;;;;11.60;99.90;;;;;;5113718;28;19915;-67
2021/07/10 05:35:31;;;;;;;;;;;11.40;99.90;;;;;;5112080;28;20387;-67
2021/07/10 05:37:58;;;;;;;;;;;11.30;99.90;;;;;;5113160;28;19912;-67
2021/07/10 05:40:25;;;;;;;;;;;11.20;99.90;;;;;;5112945;28;19916;-68
2021/07/10 05:42:53;;;;;;;;;;;11.10;99.90;;;;;;5113366;28;19919;-67
2021/07/10 05:45:20;;;;;;;;;;;11.10;99.90;;;;;;5113288;28;19964;-67
2021/07/10 05:47:47;;;;;;;;;;;11.00;99.90;;;;;;5113044;28;20060;-67
2021/07/10 05:50:14;;;;;;;;;;;11.00;99.90;;;;;;5111147;28;19916;-67
2021/07/10 05:52:41;;;;;;;;;;;11.00;99.90;;;;;;5112882;28;19908;-67
2021/07/10 05:55:08;;;;;;;;;;;11.00;99.90;;;;;;5112481;28;20326;-68
2021/07/10 05:57:35;;;;;;;;;;;11.00;99.90;;;;;;5112961;28;19923;-67
2021/07/10 06:00:01;;;;;;;;;;;11.00;99.90;;;;;;5112859;28;19969;-67
2021/07/10 06:02:28;;;;;;;;;;;11.00;99.90;;;;;;5112912;28;19912;-67
2021/07/10 06:04:55;;;;;;;;;;;11.00;99.90;;;;;;5092742;28;20270;-67
2021/07/10 06:07:21;;;;;;;;;;;11.10;99.90;;;;;;5112629;28;20006;-68
2021/07/10 06:09:48;;;;;;;;;;;11.10;99.90;;;;;;5093943;28;19915;-67
2021/07/10 06:12:15;;;;;;;;;;;11.10;99.90;;;;;;5112812;28;19912;-68
2021/07/10 06:14:41;;;;;;;;;;;11.10;99.90;;;;;;5112651;28;19908;-67
2021/07/10 06:17:08;;;;;;;;;;;11.10;99.90;;;;;;5112253;28;19951;-67
2021/07/10 06:19:35;;;;;;;;;;;11.10;99.90;;;;;;5110443;28;20450;-68
2021/07/10 06:22:03;;;;;;;;;;;11.10;99.90;;;;;;5112450;28;20294;-68
2021/07/10 06:24:30;;;;;;;;;;;11.10;99.90;;;;;;5112497;28;20007;-68
2021/07/10 06:26:57;;;;;;;;;;;11.20;99.90;;;;;;5111422;28;19915;-68
2021/07/10 06:29:24;;;;;;;;;;;11.20;99.90;;;;;;5112393;28;19915;-70
2021/07/10 06:31:50;;;;;;;;;;;11.20;99.90;;;;;;5111634;28;19927;-68
2021/07/10 06:34:17;;;;;;;;;;;11.20;99.90;;;;;;5111698;28;19969;-68
2021/07/10 06:36:43;;;;;;;;;;;11.20;99.90;;;;;;5110513;28;19954;-68
2021/07/10 06:39:10;;;;;;;;;;;11.20;99.90;;;;;;5112136;28;19908;-68
2021/07/10 06:41:38;;;;;;;;;;;11.20;99.90;;;;;;5111603;28;19912;-67
2021/07/10 06:44:05;;;;;;;;;;;11.20;99.90;;;;;;5111554;28;19930;-68
2021/07/10 06:46:32;;;;;;;;;;;11.20;99.90;;;;;;5111997;28;19984;-67
2021/07/10 06:48:58;;;;;;;;;;;11.30;99.90;;;;;;5095696;28;19919;-67
2021/07/10 06:51:25;;;;;;;;;;;11.40;99.90;;;;;;5091555;28;20281;-68
2021/07/10 06:53:52;;;;;;;;;;;11.40;99.90;;;;;;5091467;28;19908;-67
2021/07/10 06:56:18;;;;;;;;;;;11.40;99.90;;;;;;5090720;28;19918;-68
2021/07/10 06:58:45;;;;;;;;;;;11.50;99.90;;;;;;5091643;28;19916;-69
2021/07/10 07:01:12;;;;;;;;;;;11.50;99.90;;;;;;5091437;28;19913;-68
2021/07/10 07:03:38;;;;;;;;;;;11.60;99.90;;;;;;5078055;28;19956;-69
2021/07/10 07:06:05;;;;;;;;;;;11.60;99.90;;;;;;5087219;28;19939;-67
2021/07/10 07:08:32;;;;;;;;;;;11.60;99.90;;;;;;5080895;28;19908;-69
2021/07/10 07:10:58;;;;;;;;;;;11.60;99.90;;;;;;5070124;28;20171;-69
2021/07/10 07:13:25;;;;;;;;;;;11.60;99.90;;;;;;5090775;28;19915;-69
2021/07/10 07:15:52;;;;;;;;;;;11.60;99.90;;;;;;5111544;28;20044;-69
2021/07/10 07:18:18;;;;;;;;;;;11.70;99.90;;;;;;5111507;28;20343;-69
2021/07/10 07:20:45;;;;;;;;;;;11.70;99.90;;;;;;5111287;28;20296;-69
2021/07/10 07:23:12;;;;;;;;;;;11.60;99.90;;;;;;5111259;28;19999;-69
2021/07/10 07:25:39;;;;;;;;;;;11.70;99.90;;;;;;5110919;28;19923;-69
2021/07/10 07:28:06;;;;;;;;;;;11.70;99.90;;;;;;5111415;28;19912;-69
2021/07/10 07:30:34;;;;;;;;;;;11.70;99.90;;;;;;5111413;28;19922;-69
2021/07/10 07:33:01;;;;;;;;;;;11.70;99.90;;;;;;5110893;28;20262;-67
2021/07/10 07:35:27;;;;;;;;;;;11.80;99.90;;;;;;5110646;28;19912;-68
2021/07/10 07:37:54;;;;;;;;;;;11.80;99.90;;;;;;5110551;28;19962;-68
2021/07/10 07:40:21;;;;;;;;;;;11.80;99.90;;;;;;5110503;28;19916;-69
2021/07/10 07:42:47;;;;;;;;;;;11.90;99.90;;;;;;5111010;28;20263;-70
2021/07/10 07:45:15;;;;;;;;;;;11.80;99.90;;;;;;5111195;28;19912;-68
2021/07/10 07:47:41;;;;;;;;;;;11.80;99.90;;;;;;5111125;28;20011;-69
2021/07/10 07:50:09;;;;;;;;;;;11.80;99.90;;;;;;5110490;28;19919;-69
2021/07/10 07:52:36;;;;;;;;;;;11.80;99.90;;;;;;5110947;28;19965;-69
2021/07/10 07:55:04;;;;;;;;;;;11.90;99.90;;;;;;5110805;28;19908;-69
2021/07/10 07:57:30;;;;;;;;;;;11.90;99.90;;;;;;5110861;28;19946;-69
2021/07/10 07:59:57;;;;;;;;;;;11.90;99.90;;;;;;5111166;28;19908;-68
2021/07/10 08:02:23;;;;;;;;;;;11.80;99.90;;;;;;5080196;28;19931;-70
2021/07/10 08:04:51;;;;;;;;;;;11.90;99.90;;;;;;5069565;28;19962;-69
2021/07/10 08:07:18;;;;;;;;;;;11.90;99.90;;;;;;5070146;28;19917;-69
2021/07/10 08:09:44;;;;;;;;;;;11.90;99.90;;;;;;5070034;28;19912;-69
2021/07/10 08:12:12;;;;;;;;;;;11.90;99.90;;;;;;5070100;28;19962;-69
2021/07/10 08:14:39;;;;;;;;;;;11.80;99.90;;;;;;5069766;28;19932;-69
2021/07/10 08:17:06;;;;;;;;;;;11.90;99.90;;;;;;5070685;28;20355;-69
2021/07/10 08:19:32;;;;;;;;;;;11.80;99.90;;;;;;5069560;28;20002;-69
2021/07/10 08:21:59;;;;;;;;;;;11.80;99.90;;;;;;5069977;28;19948;-68
2021/07/10 08:24:26;;;;;;;;;;;11.80;99.90;;;;;;5070236;28;19916;-68
2021/07/10 08:26:52;;;;;;;;;;;11.80;99.90;;;;;;5070182;28;19921;-68
2021/07/10 08:29:19;;;;;;;;;;;11.80;99.90;;;;;;5070050;28;19951;-69
2021/07/10 08:31:45;;;;;;;;;;;11.70;99.90;;;;;;5070112;28;19951;-68
2021/07/10 08:34:13;;;;;;;;;;;11.70;99.90;;;;;;5069500;28;19940;-68
2021/07/10 08:36:40;;;;;;;;;;;11.60;99.90;;;;;;5070357;28;19908;-68
2021/07/10 08:39:07;;;;;;;;;;;11.60;99.90;;;;;;5069995;28;19916;-67
2021/07/10 08:41:34;;;;;;;;;;;11.60;99.90;;;;;;5069508;28;19971;-68
2021/07/10 08:44:01;;;;;;;;;;;11.60;99.90;;;;;;5070000;28;19966;-67
2021/07/10 08:46:28;;;;;;;;;;;11.60;99.90;;;;;;5069935;28;19917;-68
2021/07/10 08:48:56;;;;;;;;;;;11.60;99.90;;;;;;5069681;28;19913;-67
2021/07/10 08:51:23;;;;;;;;;;;11.60;99.90;;;;;;5072425;28;19912;-67
2021/07/10 08:53:50;;;;;;;;;;;11.60;99.90;;;;;;5106323;28;20473;-67
2021/07/10 08:56:17;;;;;;;;;;;11.70;99.90;;;;;;5073933;28;19912;-67
2021/07/10 08:58:43;;;;;;;;;;;11.60;99.90;;;;;;5073615;28;19912;-68
2021/07/10 09:01:10;;;;;;;;;;;11.50;99.90;;;;;;5073505;28;19916;-68
2021/07/10 09:03:39;;;;;;;;;;;11.50;99.90;;;;;;5072825;28;19915;-68
2021/07/10 09:06:05;;;;;;;;;;;11.50;99.90;;;;;;5073248;28;19920;-68
2021/07/10 09:08:32;;;;;;;;;;;11.50;99.90;;;;;;5073229;28;19990;-68
2021/07/10 09:11:09;;;;;;;;;;;11.50;99.90;;;;;;5073619;28;19966;-68
2021/07/10 09:13:37;;;;;;;;;;;11.50;99.90;;;;;;5073151;28;19908;-69
2021/07/10 09:16:17;;;;;;;;;;;11.50;99.90;;;;;;5073187;28;20260;-68
2021/07/10 09:18:49;;;;;;;;;;;11.50;99.90;;;;;;5072805;28;19923;-68
2021/07/10 09:21:35;;;;;;;;;;;11.50;99.90;;;;;;5072766;28;19989;-68
2021/07/10 09:24:05;;;;;;;;;;;11.60;99.90;;;;;;5073205;28;19912;-68
2021/07/10 09:26:32;;;;;;;;;;;11.50;99.90;;;;;;5073213;28;19916;-68
2021/07/10 09:29:04;;;;;;;;;;;11.50;99.90;;;;;;5072931;28;19916;-68
2021/07/10 09:31:33;;;;;;;;;;;11.50;99.90;;;;;;5073008;28;19909;-68
2021/07/10 09:34:05;;;;;;;;;;;11.50;99.90;;;;;;5072243;28;19908;-68
2021/07/10 09:36:32;;;;;;;;;;;11.50;99.90;;;;;;5073048;28;20297;-68
2021/07/10 09:38:59;;;;;;;;;;;11.50;99.90;;;;;;5073408;28;20462;-68
2021/07/10 09:41:30;;;;;;;;;;;11.40;99.90;;;;;;5072761;28;19909;-68
2021/07/10 09:44:15;;;;;;;;;;;11.40;99.90;;;;;;5072638;28;19978;-68
2021/07/10 09:46:42;;;;;;;;;;;11.40;99.90;;;;;;5071993;28;19946;-68
2021/07/10 09:49:30;;;;;;;;;;;11.40;99.90;;;;;;5072752;28;20005;-68
2021/07/10 09:52:07;;;;;;;;;;;11.50;99.90;;;;;;5072876;28;20562;-68
2021/07/10 09:54:35;;;;;;;;;;;11.60;99.90;;;;;;5072957;28;19919;-68
2021/07/10 09:57:04;;;;;;;;;;;11.60;99.90;;;;;;5072640;28;19940;-68
2021/07/10 09:59:34;;;;;;;;;;;11.60;99.90;;;;;;5071983;28;19908;-68
2021/07/10 10:02:02;;;;;;;;;;;11.50;99.90;;;;;;5071462;28;19912;-68
2021/07/10 10:04:33;;;;;;;;;;;11.50;99.90;;;;;;5072269;28;19914;-68
2021/07/10 10:07:02;;;;;;;;;;;11.50;99.90;;;;;;5072502;28;19997;-68
2021/07/10 10:09:30;;;;;;;;;;;11.50;99.90;;;;;;5072393;28;19909;-68
2021/07/10 10:12:05;;;;;;;;;;;11.50;99.90;;;;;;5072411;28;19951;-68
2021/07/10 10:14:35;;;;;;;;;;;11.40;99.90;;;;;;5072491;28;20351;-69
2021/07/10 10:17:02;;;;;;;;;;;11.30;99.90;;;;;;5072529;28;19909;-69
2021/07/10 10:19:30;;;;;;;;;;;11.20;99.90;;;;;;5072081;28;20283;-68
2021/07/10 10:21:59;;;;;;;;;;;11.20;99.90;;;;;;5072395;28;20699;-68
2021/07/10 10:24:26;;;;;;;;;;;11.20;99.90;;;;;;5072385;28;19915;-69
2021/07/10 10:26:54;;;;;;;;;;;11.20;99.90;;;;;;5071744;28;19920;-68
2021/07/10 10:29:22;;;;;;;;;;;11.20;99.90;;;;;;5072132;28;19908;-69
2021/07/10 10:31:49;;;;;;;;;;;11.30;99.90;;;;;;5072055;28;19920;-67
2021/07/10 10:34:20;;;;;;;;;;;11.20;99.90;;;;;;5072113;28;19939;-69
2021/07/10 10:36:48;;;;;;;;;;;11.20;99.90;;;;;;5072113;28;19908;-68
2021/07/10 10:39:19;;;;;;;;;;;11.20;99.90;;;;;;5071401;28;19956;-68
2021/07/10 10:41:48;;;;;;;;;;;11.30;99.90;;;;;;5071453;28;19958;-68
2021/07/10 10:44:16;;;;;;;;;;;11.20;99.90;;;;;;5071635;28;20271;-68
2021/07/10 10:46:44;;;;;;;;;;;11.20;99.90;;;;;;5070975;28;19951;-68
2021/07/10 10:49:31;;;;;;;;;;;11.10;99.90;;;;;;5071857;28;19995;-68
2021/07/10 10:52:16;;;;;;;;;;;11.10;99.90;;;;;;5071352;28;19969;-69
2021/07/10 10:54:52;;;;;;;;;;;11.20;99.90;;;;;;5071672;28;20540;-68
2021/07/10 10:57:31;;;;;;;;;;;11.10;99.90;;;;;;5071226;28;19920;-68
2021/07/10 10:59:58;;;;;;;;;;;11.10;99.90;;;;;;5070802;28;19916;-68
2021/07/10 11:02:25;;;;;;;;;;;11.00;99.90;;;;;;5071637;28;19948;-69
2021/07/10 11:04:55;;;;;;;;;;;11.00;99.90;;;;;;5071058;28;19920;-69
2021/07/10 11:07:29;;;;;;;;;;;11.00;99.90;;;;;;5071948;28;20015;-69
2021/07/10 11:10:05;;;;;;;;;;;11.00;99.90;;;;;;5071678;28;19947;-69
2021/07/10 11:12:53;;;;;;;;;;;10.90;99.90;;;;;;5070902;28;19908;-69
2021/07/10 11:15:25;;;;;;;;;;;10.90;99.90;;;;;;5070895;28;19912;-68
2021/07/10 11:17:53;;;;;;;;;;;10.90;99.90;;;;;;5070939;28;19986;-69
2021/07/10 11:20:37;;;;;;;;;;;10.80;99.90;;;;;;5071569;28;19986;-68
2021/07/10 11:23:04;;;;;;;;;;;10.80;99.90;;;;;;5070957;28;20223;-68
2021/07/10 11:25:47;;;;;;;;;;;10.80;99.90;;;;;;5070359;28;19919;-67
2021/07/10 11:28:17;;;;;;;;;;;10.70;99.90;;;;;;5070750;28;20290;-67
2021/07/10 11:30:51;;;;;;;;;;;10.60;99.90;;;;;;5071067;28;20042;-68
2021/07/10 11:33:36;;;;;;;;;;;10.40;99.90;;;;;;5071469;28;20363;-68
2021/07/10 11:36:03;;;;;;;;;;;10.30;99.90;;;;;;5071100;28;19909;-67
2021/07/10 11:38:39;;;;;;;;;;;10.20;99.90;;;;;;5070736;28;19965;-68
2021/07/10 11:41:06;;;;;;;;;;;10.20;99.90;;;;;;5070888;28;20377;-68
2021/07/10 11:43:40;;;;;;;;;;;10.10;99.90;;;;;;5069962;28;19931;-69
2021/07/10 11:46:07;;;;;;;;;;;10.10;99.90;;;;;;5070673;28;19927;-68
2021/07/10 11:48:34;;;;;;;;;;;10.00;99.90;;;;;;5070551;28;19909;-69
2021/07/10 11:51:02;;;;;;;;;;;10.10;99.90;;;;;;5070460;28;20244;-68
2021/07/10 11:53:28;;;;;;;;;;;10.10;99.90;;;;;;5070139;28;19915;-68
2021/07/10 11:55:59;;;;;;;;;;;10.30;99.90;;;;;;5070566;28;19908;-68
2021/07/10 11:58:27;;;;;;;;;;;10.60;99.90;;;;;;5070166;28;19915;-68
2021/07/10 12:00:57;;;;;;;;;;;10.70;99.90;;;;;;5070535;28;19999;-68
2021/07/10 12:03:25;;;;;;;;;;;10.90;99.90;;;;;;5070427;28;19913;-68
2021/07/10 12:05:53;;;;;;;;;;;11.10;99.90;;;;;;5069587;28;20282;-69
2021/07/10 12:08:20;;;;;;;;;;;11.20;99.90;;;;;;5070176;28;19912;-68
2021/07/10 12:10:49;;;;;;;;;;;11.20;99.90;;;;;;5070083;28;19908;-68
2021/07/10 12:13:23;;;;;;;;;;;11.30;99.90;;;;;;5069691;28;19917;-68
2021/07/10 12:15:52;;;;;;;;;;;11.30;99.90;;;;;;5070051;28;19944;-68
2021/07/10 12:18:20;;;;;;;;;;;11.20;99.90;;;;;;5069847;28;20362;-69
2021/07/10 12:20:46;;;;;;;;;;;11.20;99.90;;;;;;5070368;28;20275;-68
2021/07/10 12:23:25;;;;;;;;;;;11.10;99.90;;;;;;5070223;28;20332;-68
2021/07/10 12:25:54;;;;;;;;;;;11.10;99.90;;;;;;5071704;28;19920;-69
2021/07/10 12:28:31;;;;;;;;;;;11.10;99.90;;;;;;5073811;28;19916;-68
2021/07/10 12:30:58;;;;;;;;;;;11.10;99.90;;;;;;5074186;28;19919;-68
2021/07/10 12:33:42;;;;;;;;;;;10.90;99.90;;;;;;5074164;28;19920;-68
2021/07/10 12:36:19;;;;;;;;;;;10.90;99.90;;;;;;5074095;28;19908;-68
2021/07/10 12:38:52;;;;;;;;;;;10.70;99.90;;;;;;5074133;28;19912;-68
2021/07/10 12:41:21;;;;;;;;;;;10.70;99.90;;;;;;5074109;28;19920;-68
2021/07/10 12:43:48;;;;;;;;;;;10.70;99.90;;;;;;5072836;28;19927;-68
2021/07/10 12:46:14;;;;;;;;;;;10.60;99.90;;;;;;5074091;28;20383;-68
2021/07/10 12:48:41;;;;;;;;;;;10.60;99.90;;;;;;5073749;28;19908;-68
2021/07/10 12:51:08;;;;;;;;;;;10.60;99.90;;;;;;5074134;28;19957;-68
2021/07/10 12:53:37;;;;;;;;;;;10.50;99.90;;;;;;5073772;28;19919;-68
2021/07/10 12:56:24;;;;;;;;;;;10.50;99.90;;;;;;5073925;28;19919;-69
2021/07/10 12:58:51;;;;;;;;;;;10.50;99.90;;;;;;5072668;28;19977;-69
2021/07/10 13:01:21;;;;;;;;;;;10.50;99.90;;;;;;5073579;28;19999;-68
2021/07/10 13:03:49;;;;;;;;;;;10.50;99.90;;;;;;5073436;28;20017;-68
2021/07/10 13:06:16;;;;;;;;;;;10.50;99.90;;;;;;5073512;28;19924;-68
2021/07/10 13:08:49;;;;;;;;;;;10.40;99.90;;;;;;5073589;28;19923;-69
2021/07/10 13:11:16;;;;;;;;;;;10.40;99.90;;;;;;5073038;28;20005;-68
2021/07/10 13:13:51;;;;;;;;;;;10.40;99.90;;;;;;5071419;28;20294;-68
2021/07/10 13:16:19;;;;;;;;;;;10.50;99.90;;;;;;5073317;28;19912;-68
2021/07/10 13:18:50;;;;;;;;;;;10.40;99.90;;;;;;5073133;28;19909;-68
2021/07/10 13:21:24;;;;;;;;;;;10.40;99.90;;;;;;5073284;28;20003;-68
2021/07/10 13:23:52;;;;;;;;;;;10.40;99.90;;;;;;5072640;28;19958;-68
2021/07/10 13:26:20;;;;;;;;;;;10.40;99.90;;;;;;5072908;28;19940;-68
2021/07/10 13:28:47;;;;;;;;;;;10.40;99.90;;;;;;5072565;28;20044;-68
2021/07/10 13:31:25;;;;;;;;;;;10.30;99.90;;;;;;5073207;28;20278;-68
2021/07/10 13:34:02;;;;;;;;;;;10.30;99.90;;;;;;5072532;28;19909;-68
2021/07/10 13:36:30;;;;;;;;;;;10.20;99.90;;;;;;5099746;28;19915;-68
2021/07/10 13:39:03;;;;;;;;;;;10.20;99.90;;;;;;5113711;28;19911;-68
2021/07/10 13:41:31;;;;;;;;;;;10.20;99.90;;;;;;5112645;28;20283;-69
2021/07/10 13:44:01;;;;;;;;;;;10.20;99.90;;;;;;5113456;28;19919;-69
2021/07/10 13:46:28;;;;;;;;;;;10.30;99.90;;;;;;5113173;28;19947;-68
2021/07/10 13:48:55;;;;;;;;;;;10.30;99.90;;;;;;5112866;28;19911;-69
2021/07/10 13:51:25;;;;;;;;;;;10.30;99.90;;;;;;5113181;28;19911;-69
2021/07/10 13:53:52;;;;;;;;;;;10.30;99.90;;;;;;5113182;28;19908;-68
2021/07/10 13:56:20;;;;;;;;;;;10.30;99.90;;;;;;5112543;28;19914;-68
2021/07/10 13:59:02;;;;;;;;;;;10.20;99.90;;;;;;5112941;28;19935;-69
2021/07/10 14:01:29;;;;;;;;;;;10.20;99.90;;;;;;5112412;28;19915;-69
2021/07/10 14:03:55;;;;;;;;;;;10.20;99.90;;;;;;5112883;28;19915;-68
2021/07/10 14:06:22;;;;;;;;;;;10.20;99.90;;;;;;5113026;28;19957;-67
2021/07/10 14:08:49;;;;;;;;;;;10.20;99.90;;;;;;5113191;28;20414;-68
2021/07/10 14:11:15;;;;;;;;;;;10.20;99.90;;;;;;5112785;28;19908;-68
2021/07/10 14:13:42;;;;;;;;;;;10.20;99.90;;;;;;5112274;28;19990;-68
2021/07/10 14:16:09;;;;;;;;;;;10.20;99.90;;;;;;5112836;28;19915;-68
2021/07/10 14:18:36;;;;;;;;;;;10.20;99.90;;;;;;5112602;28;19912;-68
2021/07/10 14:21:03;;;;;;;;;;;10.20;99.90;;;;;;5112864;28;19919;-68
2021/07/10 14:23:29;;;;;;;;;;;10.20;99.90;;;;;;5112810;28;19911;-68
2021/07/10 14:25:58;;;;;;;;;;;10.30;99.90;;;;;;5112667;28;19919;-68